sensor_id;sensor_type;location;lat;lon;timestamp;pressure;altitude;pressure_sealevel;temperature;humidity
8699;BME280;4386;51.236;6.742;2024-03-25T00:00:18;96110.31;;;13.42;56.54
8699;BME280;4386;51.236;6.742;2024-03-25T00:01:22;96118.56;;;13.41;56.92
8699;BME280;4386;51.236;6.742;2024-03-25T00:02:26;96107.38;;;13.39;56.87
8699;BME280;4386;51.236;6.742;2024-03-25T00:03:28;96117.19;;;13.38;56.84
8699;BME280;4386;51.236;6.742;2024-03-25T00:04:31;96111.09;;;13.38;57.37
8699;BME280;4386;51.236;6.742;2024-03-25T00:05:32;96115.34;;;13.39;56.99
8699;BME280;4386;51.236;6.742;2024-03-25T00:06:34;96107.38;;;13.39;57.24
8699;BME280;4386;51.236;6.742;2024-03-25T00:07:37;96107.94;;;13.41;57.56
8699;BME280;4386;51.236;6.742;2024-03-25T00:08:40;96109.50;;;13.42;57.38
8699;BME280;4386;51.236;6.742;2024-03-25T00:09:42;96105.50;;;13.39;57.25
8699;BME280;4386;51.236;6.742;2024-03-25T00:10:44;96107.38;;;13.39;57.43
8699;BME280;4386;51.236;6.742;2024-03-25T00:11:47;96105.28;;;13.41;57.83
8699;BME280;4386;51.236;6.742;2024-03-25T00:12:49;96107.97;;;13.46;57.48
8699;BME280;4386;51.236;6.742;2024-03-25T00:13:54;96108.28;;;13.49;57.59
8699;BME280;4386;51.236;6.742;2024-03-25T00:14:56;96109.06;;;13.50;57.40
8699;BME280;4386;51.236;6.742;2024-03-25T00:15:58;96108.03;;;13.51;57.49
8699;BME280;4386;51.236;6.742;2024-03-25T00:17:00;96113.88;;;13.53;57.14
8699;BME280;4386;51.236;6.742;2024-03-25T00:18:04;96115.19;;;13.50;57.04
8699;BME280;4386;51.236;6.742;2024-03-25T00:19:06;96113.84;;;13.48;56.87
8699;BME280;4386;51.236;6.742;2024-03-25T00:20:09;96115.72;;;13.47;57.08
8699;BME280;4386;51.236;6.742;2024-03-25T00:21:12;96120.22;;;13.47;56.91
8699;BME280;4386;51.236;6.742;2024-03-25T00:22:13;96119.41;;;13.46;56.96
8699;BME280;4386;51.236;6.742;2024-03-25T00:23:15;96117.56;;;13.47;57.14
8699;BME280;4386;51.236;6.742;2024-03-25T00:24:17;96124.72;;;13.46;57.04
8699;BME280;4386;51.236;6.742;2024-03-25T00:25:20;96118.59;;;13.46;56.75
8699;BME280;4386;51.236;6.742;2024-03-25T00:26:23;96124.13;;;13.39;56.43
8699;BME280;4386;51.236;6.742;2024-03-25T00:27:24;96116.91;;;13.35;56.56
8699;BME280;4386;51.236;6.742;2024-03-25T00:28:26;96124.31;;;13.33;56.87
8699;BME280;4386;51.236;6.742;2024-03-25T00:29:29;96119.50;;;13.30;56.48
8699;BME280;4386;51.236;6.742;2024-03-25T00:30:31;96124.50;;;13.26;56.64
8699;BME280;4386;51.236;6.742;2024-03-25T00:31:33;96121.56;;;13.23;56.56
8699;BME280;4386;51.236;6.742;2024-03-25T00:32:35;96125.75;;;13.19;56.36
8699;BME280;4386;51.236;6.742;2024-03-25T00:33:39;96125.75;;;13.19;56.85
8699;BME280;4386;51.236;6.742;2024-03-25T00:34:41;96121.50;;;13.18;56.91
8699;BME280;4386;51.236;6.742;2024-03-25T00:35:43;96126.31;;;13.21;57.30
8699;BME280;4386;51.236;6.742;2024-03-25T00:36:47;96118.91;;;13.23;57.11
8699;BME280;4386;51.236;6.742;2024-03-25T00:37:49;96123.72;;;13.26;57.07
8699;BME280;4386;51.236;6.742;2024-03-25T00:38:51;96112.03;;;13.27;57.03
8699;BME280;4386;51.236;6.742;2024-03-25T00:39:53;96120.50;;;13.24;56.60
8699;BME280;4386;51.236;6.742;2024-03-25T00:40:56;96117.50;;;13.15;56.60
8699;BME280;4386;51.236;6.742;2024-03-25T00:41:59;96117.97;;;13.12;56.42
8699;BME280;4386;51.236;6.742;2024-03-25T00:43:01;96115.25;;;13.07;56.47
8699;BME280;4386;51.236;6.742;2024-03-25T00:44:03;96118.91;;;13.01;56.36
8699;BME280;4386;51.236;6.742;2024-03-25T00:45:07;96119.09;;;12.94;56.20
8699;BME280;4386;51.236;6.742;2024-03-25T00:46:09;96115.31;;;12.90;56.42
8699;BME280;4386;51.236;6.742;2024-03-25T00:47:11;96111.31;;;12.88;56.82
8699;BME280;4386;51.236;6.742;2024-03-25T00:48:14;96113.66;;;12.84;56.56
8699;BME280;4386;51.236;6.742;2024-03-25T00:49:18;96108.28;;;12.79;56.47
8699;BME280;4386;51.236;6.742;2024-03-25T00:50:20;96107.16;;;12.75;56.61
8699;BME280;4386;51.236;6.742;2024-03-25T00:51:22;96104.50;;;12.75;57.07
8699;BME280;4386;51.236;6.742;2024-03-25T00:52:24;96102.97;;;12.79;57.11
8699;BME280;4386;51.236;6.742;2024-03-25T00:53:27;96096.59;;;12.80;57.31
8699;BME280;4386;51.236;6.742;2024-03-25T00:54:29;96101.41;;;12.83;57.38
8699;BME280;4386;51.236;6.742;2024-03-25T00:55:31;96102.53;;;12.87;57.71
8699;BME280;4386;51.236;6.742;2024-03-25T00:56:34;96104.69;;;12.90;57.64
8699;BME280;4386;51.236;6.742;2024-03-25T00:57:36;96101.28;;;12.95;57.51
8699;BME280;4386;51.236;6.742;2024-03-25T00:58:38;96102.66;;;12.97;57.56
8699;BME280;4386;51.236;6.742;2024-03-25T00:59:40;96094.19;;;13.00;57.39
8699;BME280;4386;51.236;6.742;2024-03-25T01:00:42;96094.47;;;13.04;57.52
8699;BME280;4386;51.236;6.742;2024-03-25T01:01:44;96095.84;;;13.06;57.38
8699;BME280;4386;51.236;6.742;2024-03-25T01:02:46;96091.66;;;13.11;57.69
8699;BME280;4386;51.236;6.742;2024-03-25T01:03:49;96099.13;;;13.14;57.76
8699;BME280;4386;51.236;6.742;2024-03-25T01:04:52;96094.94;;;13.18;57.59
8699;BME280;4386;51.236;6.742;2024-03-25T01:05:55;96089.09;;;13.21;57.67
8699;BME280;4386;51.236;6.742;2024-03-25T01:06:58;96092.31;;;13.23;57.62
8699;BME280;4386;51.236;6.742;2024-03-25T01:08:00;96083.84;;;13.26;57.26
8699;BME280;4386;51.236;6.742;2024-03-25T01:09:03;96093.13;;;13.23;57.03
8699;BME280;4386;51.236;6.742;2024-03-25T01:10:06;96088.06;;;13.22;56.76
8699;BME280;4386;51.236;6.742;2024-03-25T01:11:09;96092.81;;;13.20;56.52
8699;BME280;4386;51.236;6.742;2024-03-25T01:12:12;96093.81;;;13.14;56.74
8699;BME280;4386;51.236;6.742;2024-03-25T01:13:14;96089.31;;;13.14;56.75
8699;BME280;4386;51.236;6.742;2024-03-25T01:14:15;96093.28;;;13.12;56.55
8699;BME280;4386;51.236;6.742;2024-03-25T01:15:18;96090.63;;;13.12;56.42
8699;BME280;4386;51.236;6.742;2024-03-25T01:16:20;96082.38;;;13.13;56.82
8699;BME280;4386;51.236;6.742;2024-03-25T01:17:23;96087.69;;;13.13;56.99
8699;BME280;4386;51.236;6.742;2024-03-25T01:18:24;96087.69;;;13.13;56.64
8699;BME280;4386;51.236;6.742;2024-03-25T01:19:27;96085.31;;;13.12;56.57
8699;BME280;4386;51.236;6.742;2024-03-25T01:20:30;96087.06;;;13.06;56.02
8699;BME280;4386;51.236;6.742;2024-03-25T01:21:32;96084.84;;;12.98;55.98
8699;BME280;4386;51.236;6.742;2024-03-25T01:22:36;96081.34;;;12.92;55.77
8699;BME280;4386;51.236;6.742;2024-03-25T01:23:38;96083.13;;;12.87;55.88
8699;BME280;4386;51.236;6.742;2024-03-25T01:24:40;96080.41;;;12.82;55.91
8699;BME280;4386;51.236;6.742;2024-03-25T01:25:43;96088.63;;;12.80;56.27
8699;BME280;4386;51.236;6.742;2024-03-25T01:26:45;96090.41;;;12.75;55.96
8699;BME280;4386;51.236;6.742;2024-03-25T01:27:47;96090.09;;;12.71;55.83
8699;BME280;4386;51.236;6.742;2024-03-25T01:28:49;96089.00;;;12.67;56.17
8699;BME280;4386;51.236;6.742;2024-03-25T01:29:51;96087.09;;;12.63;56.20
8699;BME280;4386;51.236;6.742;2024-03-25T01:30:54;96083.63;;;12.62;56.48
8699;BME280;4386;51.236;6.742;2024-03-25T01:32:05;96085.47;;;12.62;56.78
8699;BME280;4386;51.236;6.742;2024-03-25T01:33:12;96080.97;;;12.62;56.89
8699;BME280;4386;51.236;6.742;2024-03-25T01:34:27;96074.03;;;12.61;57.21
8699;BME280;4386;51.236;6.742;2024-03-25T01:35:31;96076.16;;;12.59;56.54
8699;BME280;4386;51.236;6.742;2024-03-25T01:36:34;96069.22;;;12.58;56.82
8699;BME280;4386;51.236;6.742;2024-03-25T01:37:36;96074.53;;;12.58;57.05
8699;BME280;4386;51.236;6.742;2024-03-25T01:38:39;96072.44;;;12.60;56.93
8699;BME280;4386;51.236;6.742;2024-03-25T01:39:41;96065.53;;;12.59;56.93
8699;BME280;4386;51.236;6.742;2024-03-25T01:40:43;96069.00;;;12.60;57.10
8699;BME280;4386;51.236;6.742;2024-03-25T01:41:46;96071.38;;;12.61;57.13
8699;BME280;4386;51.236;6.742;2024-03-25T01:42:55;96064.47;;;12.60;56.89
8699;BME280;4386;51.236;6.742;2024-03-25T01:43:57;96070.03;;;12.59;56.95
8699;BME280;4386;51.236;6.742;2024-03-25T01:44:59;96076.97;;;12.60;57.06
8699;BME280;4386;51.236;6.742;2024-03-25T01:46:03;96073.72;;;12.58;56.70
8699;BME280;4386;51.236;6.742;2024-03-25T01:47:04;96083.56;;;12.57;57.12
8699;BME280;4386;51.236;6.742;2024-03-25T01:48:08;96077.44;;;12.57;56.95
8699;BME280;4386;51.236;6.742;2024-03-25T01:49:12;96077.44;;;12.57;57.00
8699;BME280;4386;51.236;6.742;2024-03-25T01:50:15;96077.16;;;12.53;56.68
8699;BME280;4386;51.236;6.742;2024-03-25T01:51:20;96077.00;;;12.43;56.40
8699;BME280;4386;51.236;6.742;2024-03-25T01:52:23;96084.25;;;12.31;56.26
8699;BME280;4386;51.236;6.742;2024-03-25T01:53:28;96083.63;;;12.24;56.74
8699;BME280;4386;51.236;6.742;2024-03-25T01:54:32;96080.38;;;12.17;56.64
8699;BME280;4386;51.236;6.742;2024-03-25T01:55:35;96087.19;;;12.13;56.96
8699;BME280;4386;51.236;6.742;2024-03-25T01:56:38;96076.59;;;12.13;57.10
8699;BME280;4386;51.236;6.742;2024-03-25T01:57:43;96080.28;;;12.12;57.01
8699;BME280;4386;51.236;6.742;2024-03-25T01:58:46;96074.97;;;12.12;57.20
8699;BME280;4386;51.236;6.742;2024-03-25T01:59:49;96084.78;;;12.11;57.46
8699;BME280;4386;51.236;6.742;2024-03-25T02:00:51;96082.94;;;12.12;57.16
8699;BME280;4386;51.236;6.742;2024-03-25T02:02:05;96079.78;;;12.15;57.23
8699;BME280;4386;51.236;6.742;2024-03-25T02:03:08;96077.41;;;12.13;57.34
8699;BME280;4386;51.236;6.742;2024-03-25T02:04:10;96079.78;;;12.15;57.27
8699;BME280;4386;51.236;6.742;2024-03-25T02:05:15;96081.16;;;12.17;57.56
8699;BME280;4386;51.236;6.742;2024-03-25T02:06:18;96080.59;;;12.15;57.25
8699;BME280;4386;51.236;6.742;2024-03-25T02:07:24;96086.72;;;12.16;57.56
8699;BME280;4386;51.236;6.742;2024-03-25T02:08:27;96079.78;;;12.15;57.50
8699;BME280;4386;51.236;6.742;2024-03-25T02:09:30;96079.78;;;12.15;57.56
8699;BME280;4386;51.236;6.742;2024-03-25T02:10:32;96079.78;;;12.15;57.43
8699;BME280;4386;51.236;6.742;2024-03-25T02:11:35;96075.56;;;12.14;57.56
8699;BME280;4386;51.236;6.742;2024-03-25T02:12:37;96073.44;;;12.16;57.72
8699;BME280;4386;51.236;6.742;2024-03-25T02:13:39;96076.09;;;12.16;57.61
8699;BME280;4386;51.236;6.742;2024-03-25T02:14:42;96076.41;;;12.19;57.74
8699;BME280;4386;51.236;6.742;2024-03-25T02:15:45;96073.50;;;12.21;57.61
8699;BME280;4386;51.236;6.742;2024-03-25T02:16:47;96070.84;;;12.21;57.45
8699;BME280;4386;51.236;6.742;2024-03-25T02:17:48;96078.50;;;12.17;57.27
8699;BME280;4386;51.236;6.742;2024-03-25T02:18:51;96070.78;;;12.16;57.33
8699;BME280;4386;51.236;6.742;2024-03-25T02:19:53;96079.78;;;12.15;56.82
8699;BME280;4386;51.236;6.742;2024-03-25T02:20:56;96072.59;;;12.10;56.92
8699;BME280;4386;51.236;6.742;2024-03-25T02:21:59;96071.78;;;12.10;57.17
8699;BME280;4386;51.236;6.742;2024-03-25T02:23:01;96069.13;;;12.10;57.07
8699;BME280;4386;51.236;6.742;2024-03-25T02:24:05;96068.53;;;12.08;57.17
8699;BME280;4386;51.236;6.742;2024-03-25T02:25:11;96073.84;;;12.08;57.60
8699;BME280;4386;51.236;6.742;2024-03-25T02:26:14;96071.78;;;12.10;57.46
8699;BME280;4386;51.236;6.742;2024-03-25T02:27:16;96072.31;;;12.12;57.49
8699;BME280;4386;51.236;6.742;2024-03-25T02:28:20;96078.44;;;12.12;57.25
8699;BME280;4386;51.236;6.742;2024-03-25T02:29:22;96079.97;;;12.08;57.00
8699;BME280;4386;51.236;6.742;2024-03-25T02:30:24;96072.50;;;12.05;57.13
8699;BME280;4386;51.236;6.742;2024-03-25T02:31:26;96077.41;;;11.96;56.92
8699;BME280;4386;51.236;6.742;2024-03-25T02:32:29;96080.25;;;11.90;56.49
8699;BME280;4386;51.236;6.742;2024-03-25T02:33:32;96080.72;;;11.87;57.18
8699;BME280;4386;51.236;6.742;2024-03-25T02:34:33;96083.59;;;11.85;57.11
8699;BME280;4386;51.236;6.742;2024-03-25T02:35:36;96087.88;;;11.86;56.99
8699;BME280;4386;51.236;6.742;2024-03-25T02:36:40;96089.50;;;11.87;57.39
8699;BME280;4386;51.236;6.742;2024-03-25T02:37:43;96091.06;;;11.88;57.25
8699;BME280;4386;51.236;6.742;2024-03-25T02:38:44;96088.41;;;11.88;57.41
8699;BME280;4386;51.236;6.742;2024-03-25T02:39:46;96089.16;;;11.84;56.94
8699;BME280;4386;51.236;6.742;2024-03-25T02:40:50;96095.34;;;11.73;56.93
8699;BME280;4386;51.236;6.742;2024-03-25T02:41:53;96084.31;;;11.64;57.05
8699;BME280;4386;51.236;6.742;2024-03-25T02:42:55;96086.38;;;11.62;57.38
8699;BME280;4386;51.236;6.742;2024-03-25T02:44:01;96089.03;;;11.62;57.67
8699;BME280;4386;51.236;6.742;2024-03-25T02:45:03;96087.50;;;11.66;57.91
8699;BME280;4386;51.236;6.742;2024-03-25T02:46:06;96081.53;;;11.71;58.48
8699;BME280;4386;51.236;6.742;2024-03-25T02:47:10;96085.88;;;11.77;58.61
8699;BME280;4386;51.236;6.742;2024-03-25T02:48:13;96084.66;;;11.84;58.59
8699;BME280;4386;51.236;6.742;2024-03-25T02:49:14;96089.00;;;11.90;58.25
8699;BME280;4386;51.236;6.742;2024-03-25T02:50:16;96083.22;;;11.93;58.26
8699;BME280;4386;51.236;6.742;2024-03-25T02:51:19;96088.03;;;11.96;58.17
8699;BME280;4386;51.236;6.742;2024-03-25T02:52:21;96083.28;;;11.98;58.08
8699;BME280;4386;51.236;6.742;2024-03-25T02:53:23;96097.66;;;12.02;58.02
8699;BME280;4386;51.236;6.742;2024-03-25T02:54:26;96093.72;;;12.05;57.84
8699;BME280;4386;51.236;6.742;2024-03-25T02:55:28;96102.00;;;12.09;57.78
8699;BME280;4386;51.236;6.742;2024-03-25T02:56:30;96099.91;;;12.11;57.84
8699;BME280;4386;51.236;6.742;2024-03-25T02:57:33;96100.22;;;12.14;57.54
8699;BME280;4386;51.236;6.742;2024-03-25T02:58:36;96100.69;;;12.11;57.24
8699;BME280;4386;51.236;6.742;2024-03-25T02:59:38;96092.69;;;12.06;57.34
8699;BME280;4386;51.236;6.742;2024-03-25T03:00:40;96090.25;;;12.05;57.31
8699;BME280;4386;51.236;6.742;2024-03-25T03:01:42;96093.97;;;12.04;57.43
8699;BME280;4386;51.236;6.742;2024-03-25T03:02:44;96088.66;;;12.04;57.51
8699;BME280;4386;51.236;6.742;2024-03-25T03:03:46;96086.56;;;12.06;57.66
8699;BME280;4386;51.236;6.742;2024-03-25T03:04:49;96084.47;;;12.08;57.54
8699;BME280;4386;51.236;6.742;2024-03-25T03:05:51;96086.63;;;12.11;57.50
8699;BME280;4386;51.236;6.742;2024-03-25T03:06:53;96095.72;;;12.15;57.62
8699;BME280;4386;51.236;6.742;2024-03-25T03:08:15;96090.19;;;12.16;57.80
8699;BME280;4386;51.236;6.742;2024-03-25T03:09:36;96102.16;;;12.19;57.97
8699;BME280;4386;51.236;6.742;2024-03-25T03:10:54;96093.69;;;12.22;58.43
8699;BME280;4386;51.236;6.742;2024-03-25T03:11:57;96101.16;;;12.25;58.18
8699;BME280;4386;51.236;6.742;2024-03-25T03:13:01;96098.03;;;12.28;58.28
8699;BME280;4386;51.236;6.742;2024-03-25T03:14:02;96101.50;;;12.28;58.24
8699;BME280;4386;51.236;6.742;2024-03-25T03:15:06;96097.00;;;12.29;57.90
8699;BME280;4386;51.236;6.742;2024-03-25T03:16:08;96097.53;;;12.31;57.90
8699;BME280;4386;51.236;6.742;2024-03-25T03:17:10;96099.16;;;12.32;57.60
8699;BME280;4386;51.236;6.742;2024-03-25T03:18:12;96098.59;;;12.30;57.68
8699;BME280;4386;51.236;6.742;2024-03-25T03:19:15;96104.94;;;12.29;57.63
8699;BME280;4386;51.236;6.742;2024-03-25T03:20:17;96099.38;;;12.30;57.32
8699;BME280;4386;51.236;6.742;2024-03-25T03:21:19;96103.91;;;12.30;57.31
8699;BME280;4386;51.236;6.742;2024-03-25T03:22:21;96102.28;;;12.29;57.16
8699;BME280;4386;51.236;6.742;2024-03-25T03:23:24;96103.59;;;12.26;57.59
8699;BME280;4386;51.236;6.742;2024-03-25T03:24:26;96108.66;;;12.28;57.52
8699;BME280;4386;51.236;6.742;2024-03-25T03:25:28;96103.34;;;12.28;57.36
8699;BME280;4386;51.236;6.742;2024-03-25T03:26:32;96108.66;;;12.28;57.43
8699;BME280;4386;51.236;6.742;2024-03-25T03:27:34;96104.41;;;12.27;56.90
8699;BME280;4386;51.236;6.742;2024-03-25T03:28:37;96102.78;;;12.26;56.85
8699;BME280;4386;51.236;6.742;2024-03-25T03:29:40;96100.38;;;12.24;56.49
8699;BME280;4386;51.236;6.742;2024-03-25T03:30:42;96093.16;;;12.20;56.33
8699;BME280;4386;51.236;6.742;2024-03-25T03:31:44;96096.84;;;12.19;56.17
8699;BME280;4386;51.236;6.742;2024-03-25T03:32:46;96088.00;;;12.13;55.85
8699;BME280;4386;51.236;6.742;2024-03-25T03:33:50;96102.00;;;12.09;55.87
8699;BME280;4386;51.236;6.742;2024-03-25T03:34:52;96098.22;;;12.05;55.93
8699;BME280;4386;51.236;6.742;2024-03-25T03:35:54;96100.53;;;12.01;55.91
8699;BME280;4386;51.236;6.742;2024-03-25T03:36:57;96101.84;;;11.98;56.17
8699;BME280;4386;51.236;6.742;2024-03-25T03:38:00;96100.25;;;11.97;55.88
8699;BME280;4386;51.236;6.742;2024-03-25T03:39:02;96103.94;;;11.96;55.89
8699;BME280;4386;51.236;6.742;2024-03-25T03:40:05;96099.69;;;11.95;56.05
8699;BME280;4386;51.236;6.742;2024-03-25T03:41:07;96103.63;;;11.93;56.20
8699;BME280;4386;51.236;6.742;2024-03-25T03:42:09;96105.94;;;11.89;55.92
8699;BME280;4386;51.236;6.742;2024-03-25T03:43:12;96110.13;;;11.85;56.04
8699;BME280;4386;51.236;6.742;2024-03-25T03:44:16;96106.81;;;11.78;56.19
8699;BME280;4386;51.236;6.742;2024-03-25T03:45:18;96103.56;;;11.71;55.76
8699;BME280;4386;51.236;6.742;2024-03-25T03:46:19;96106.00;;;11.61;55.87
8699;BME280;4386;51.236;6.742;2024-03-25T03:47:22;96103.25;;;11.56;56.63
8699;BME280;4386;51.236;6.742;2024-03-25T03:48:24;96104.88;;;11.57;56.78
8699;BME280;4386;51.236;6.742;2024-03-25T03:49:26;96107.03;;;11.60;57.08
8699;BME280;4386;51.236;6.742;2024-03-25T03:50:28;96106.34;;;11.65;57.19
8699;BME280;4386;51.236;6.742;2024-03-25T03:51:31;96106.34;;;11.65;56.81
8699;BME280;4386;51.236;6.742;2024-03-25T03:52:33;96106.06;;;11.66;57.14
8699;BME280;4386;51.236;6.742;2024-03-25T03:53:35;96102.88;;;11.64;56.88
8699;BME280;4386;51.236;6.742;2024-03-25T03:54:37;96106.00;;;11.61;56.69
8699;BME280;4386;51.236;6.742;2024-03-25T03:55:40;96105.91;;;11.56;56.43
8699;BME280;4386;51.236;6.742;2024-03-25T03:56:42;96107.41;;;11.52;56.64
8699;BME280;4386;51.236;6.742;2024-03-25T03:57:43;96099.38;;;11.47;56.83
8699;BME280;4386;51.236;6.742;2024-03-25T03:58:45;96105.72;;;11.46;56.90
8699;BME280;4386;51.236;6.742;2024-03-25T03:59:50;96107.91;;;11.49;56.95
8699;BME280;4386;51.236;6.742;2024-03-25T04:00:52;96103.19;;;11.51;56.99
8699;BME280;4386;51.236;6.742;2024-03-25T04:01:54;96110.16;;;11.57;56.94
8699;BME280;4386;51.236;6.742;2024-03-25T04:02:57;96104.38;;;11.60;56.83
8699;BME280;4386;51.236;6.742;2024-03-25T04:03:59;96103.91;;;11.63;56.77
8699;BME280;4386;51.236;6.742;2024-03-25T04:05:01;96112.19;;;11.67;56.64
8699;BME280;4386;51.236;6.742;2024-03-25T04:06:08;96111.50;;;11.71;56.89
8699;BME280;4386;51.236;6.742;2024-03-25T04:07:11;96110.44;;;11.72;56.94
8699;BME280;4386;51.236;6.742;2024-03-25T04:08:13;96108.94;;;11.76;56.88
8699;BME280;4386;51.236;6.742;2024-03-25T04:09:15;96107.09;;;11.77;56.44
8699;BME280;4386;51.236;6.742;2024-03-25T04:10:17;96106.34;;;11.81;56.20
8699;BME280;4386;51.236;6.742;2024-03-25T04:11:20;96096.53;;;11.82;56.18
8699;BME280;4386;51.236;6.742;2024-03-25T04:12:21;96103.69;;;11.81;56.20
8699;BME280;4386;51.236;6.742;2024-03-25T04:13:24;96094.97;;;11.81;56.14
8699;BME280;4386;51.236;6.742;2024-03-25T04:14:25;96097.34;;;11.82;55.90
8699;BME280;4386;51.236;6.742;2024-03-25T04:15:32;96101.63;;;11.83;55.96
8699;BME280;4386;51.236;6.742;2024-03-25T04:16:34;96102.66;;;11.82;55.84
8699;BME280;4386;51.236;6.742;2024-03-25T04:17:36;96098.97;;;11.83;55.67
8699;BME280;4386;51.236;6.742;2024-03-25T04:18:38;96103.22;;;11.84;55.67
8699;BME280;4386;51.236;6.742;2024-03-25T04:19:43;96114.06;;;11.83;55.81
8699;BME280;4386;51.236;6.742;2024-03-25T04:20:45;96110.06;;;11.80;55.53
8699;BME280;4386;51.236;6.742;2024-03-25T04:21:47;96112.13;;;11.78;56.03
8699;BME280;4386;51.236;6.742;2024-03-25T04:22:49;96111.34;;;11.78;56.02
8699;BME280;4386;51.236;6.742;2024-03-25T04:23:51;96114.22;;;11.76;55.97
8699;BME280;4386;51.236;6.742;2024-03-25T04:24:54;96117.91;;;11.75;56.12
8699;BME280;4386;51.236;6.742;2024-03-25T04:26:00;96113.00;;;11.67;55.91
8699;BME280;4386;51.236;6.742;2024-03-25T04:27:02;96124.09;;;11.64;56.32
8699;BME280;4386;51.236;6.742;2024-03-25T04:28:06;96119.81;;;11.63;56.89
8699;BME280;4386;51.236;6.742;2024-03-25T04:29:07;96119.34;;;11.66;56.56
8699;BME280;4386;51.236;6.742;2024-03-25T04:30:10;96128.47;;;11.70;56.82
8699;BME280;4386;51.236;6.742;2024-03-25T04:31:15;96124.78;;;11.71;57.02
8699;BME280;4386;51.236;6.742;2024-03-25T04:32:17;96124.28;;;11.74;56.99
8699;BME280;4386;51.236;6.742;2024-03-25T04:33:19;96129.34;;;11.76;56.80
8699;BME280;4386;51.236;6.742;2024-03-25T04:34:22;96133.94;;;11.80;57.00
8699;BME280;4386;51.236;6.742;2024-03-25T04:35:25;96126.78;;;11.81;56.82
8699;BME280;4386;51.236;6.742;2024-03-25T04:36:27;96138.75;;;11.83;56.76
8699;BME280;4386;51.236;6.742;2024-03-25T04:37:30;96137.13;;;11.82;56.86
8699;BME280;4386;51.236;6.742;2024-03-25T04:38:32;96140.38;;;11.84;57.10
8699;BME280;4386;51.236;6.742;2024-03-25T04:39:34;96146.22;;;11.86;57.33
8699;BME280;4386;51.236;6.742;2024-03-25T04:40:36;96144.13;;;11.88;57.33
8699;BME280;4386;51.236;6.742;2024-03-25T04:41:38;96145.25;;;11.92;57.41
8699;BME280;4386;51.236;6.742;2024-03-25T04:42:39;96145.34;;;11.97;57.74
8699;BME280;4386;51.236;6.742;2024-03-25T04:43:41;96144.88;;;12.00;57.64
8699;BME280;4386;51.236;6.742;2024-03-25T04:44:43;96145.44;;;12.02;57.23
8699;BME280;4386;51.236;6.742;2024-03-25T04:45:45;96145.97;;;12.05;57.15
8699;BME280;4386;51.236;6.742;2024-03-25T04:46:48;96144.63;;;12.02;56.85
8699;BME280;4386;51.236;6.742;2024-03-25T04:47:50;96139.00;;;11.98;56.84
8699;BME280;4386;51.236;6.742;2024-03-25T04:48:52;96148.00;;;11.97;56.83
8699;BME280;4386;51.236;6.742;2024-03-25T04:49:54;96144.28;;;11.98;56.94
8699;BME280;4386;51.236;6.742;2024-03-25T04:50:56;96148.00;;;11.97;56.59
8699;BME280;4386;51.236;6.742;2024-03-25T04:51:58;96148.00;;;11.97;56.80
8699;BME280;4386;51.236;6.742;2024-03-25T04:53:00;96151.69;;;11.96;56.91
8699;BME280;4386;51.236;6.742;2024-03-25T04:54:02;96146.63;;;11.95;56.90
8699;BME280;4386;51.236;6.742;2024-03-25T04:55:05;96150.09;;;11.95;56.49
8699;BME280;4386;51.236;6.742;2024-03-25T04:56:07;96151.69;;;11.96;56.68
8699;BME280;4386;51.236;6.742;2024-03-25T04:57:09;96150.09;;;11.95;56.85
8699;BME280;4386;51.236;6.742;2024-03-25T04:58:11;96150.09;;;11.95;57.00
8699;BME280;4386;51.236;6.742;2024-03-25T04:59:13;96144.78;;;11.95;56.59
8699;BME280;4386;51.236;6.742;2024-03-25T05:00:15;96155.38;;;11.95;56.93
8699;BME280;4386;51.236;6.742;2024-03-25T05:01:17;96147.69;;;11.94;56.44
8699;BME280;4386;51.236;6.742;2024-03-25T05:02:20;96160.94;;;11.94;56.62
8699;BME280;4386;51.236;6.742;2024-03-25T05:03:22;96155.88;;;11.92;56.27
8699;BME280;4386;51.236;6.742;2024-03-25T05:04:24;96157.72;;;11.92;56.47
8699;BME280;4386;51.236;6.742;2024-03-25T05:05:26;96156.13;;;11.91;56.34
8699;BME280;4386;51.236;6.742;2024-03-25T05:06:28;96164.88;;;11.91;56.50
8699;BME280;4386;51.236;6.742;2024-03-25T05:07:30;96159.56;;;11.91;56.20
8699;BME280;4386;51.236;6.742;2024-03-25T05:08:32;96160.63;;;11.90;56.20
8699;BME280;4386;51.236;6.742;2024-03-25T05:09:33;96160.03;;;11.88;56.10
8699;BME280;4386;51.236;6.742;2024-03-25T05:10:36;96169.06;;;11.87;56.18
8699;BME280;4386;51.236;6.742;2024-03-25T05:11:38;96162.63;;;11.83;56.08
8699;BME280;4386;51.236;6.742;2024-03-25T05:12:40;96174.28;;;11.82;56.17
8699;BME280;4386;51.236;6.742;2024-03-25T05:13:42;96169.22;;;11.81;56.39
8699;BME280;4386;51.236;6.742;2024-03-25T05:14:43;96164.69;;;11.81;56.28
8699;BME280;4386;51.236;6.742;2024-03-25T05:15:49;96168.47;;;11.85;56.36
8699;BME280;4386;51.236;6.742;2024-03-25T05:16:51;96170.31;;;11.85;56.22
8699;BME280;4386;51.236;6.742;2024-03-25T05:17:54;96174.13;;;11.89;56.35
8699;BME280;4386;51.236;6.742;2024-03-25T05:18:56;96182.41;;;11.92;56.11
8699;BME280;4386;51.236;6.742;2024-03-25T05:19:58;96185.59;;;11.94;55.87
8699;BME280;4386;51.236;6.742;2024-03-25T05:21:00;96185.72;;;11.99;55.74
8699;BME280;4386;51.236;6.742;2024-03-25T05:22:02;96193.19;;;12.02;55.93
8699;BME280;4386;51.236;6.742;2024-03-25T05:23:04;96193.50;;;12.06;55.85
8699;BME280;4386;51.236;6.742;2024-03-25T05:24:06;96199.63;;;12.07;55.55
8699;BME280;4386;51.236;6.742;2024-03-25T05:25:08;96194.47;;;12.00;55.19
8699;BME280;4386;51.236;6.742;2024-03-25T05:26:10;96195.44;;;11.94;54.95
8699;BME280;4386;51.236;6.742;2024-03-25T05:27:12;96195.09;;;11.90;54.76
8699;BME280;4386;51.236;6.742;2024-03-25T05:28:14;96193.63;;;11.83;55.09
8699;BME280;4386;51.236;6.742;2024-03-25T05:29:16;96198.53;;;11.74;54.90
8699;BME280;4386;51.236;6.742;2024-03-25T05:30:18;96197.25;;;11.65;54.83
8699;BME280;4386;51.236;6.742;2024-03-25T05:31:21;96201.34;;;11.56;54.89
8699;BME280;4386;51.236;6.742;2024-03-25T05:32:23;96193.19;;;11.46;54.82
8699;BME280;4386;51.236;6.742;2024-03-25T05:33:26;96194.63;;;11.37;55.07
8699;BME280;4386;51.236;6.742;2024-03-25T05:34:28;96191.91;;;11.32;55.33
8699;BME280;4386;51.236;6.742;2024-03-25T05:35:30;96198.22;;;11.31;55.75
8699;BME280;4386;51.236;6.742;2024-03-25T05:36:32;96193.47;;;11.33;55.97
8699;BME280;4386;51.236;6.742;2024-03-25T05:37:34;96197.19;;;11.32;55.83
8699;BME280;4386;51.236;6.742;2024-03-25T05:38:36;96195.00;;;11.29;55.71
8699;BME280;4386;51.236;6.742;2024-03-25T05:39:38;96195.38;;;11.21;55.59
8699;BME280;4386;51.236;6.742;2024-03-25T05:40:39;96193.31;;;11.11;55.47
8699;BME280;4386;51.236;6.742;2024-03-25T05:41:41;96201.97;;;11.07;55.92